sensor_id;sensor_type;location;lat;lon;timestamp;P1;durP1;ratioP1;P2;durP2;ratioP2
41532;SDS011;27262;-35.248;149.138;2023-07-29T00:01:45;0.40;;;0.30;;
41532;SDS011;27262;-35.248;149.138;2023-07-29T00:04:15;0.47;;;0.40;;
41532;SDS011;27262;-35.248;149.138;2023-07-29T00:06:46;1.00;;;0.60;;
41532;SDS011;27262;-35.248;149.138;2023-07-29T00:09:16;0.43;;;0.40;;
41532;SDS011;27262;-35.248;149.138;2023-07-29T00:11:47;0.60;;;0.50;;
41532;SDS011;27262;-35.248;149.138;2023-07-29T00:14:17;1.75;;;0.50;;
41532;SDS011;27262;-35.248;149.138;2023-07-29T00:16:48;1.02;;;0.65;;
41532;SDS011;27262;-35.248;149.138;2023-07-29T00:19:18;0.63;;;0.40;;
41532;SDS011;27262;-35.248;149.138;2023-07-29T00:21:52;1.30;;;0.52;;
41532;SDS011;27262;-35.248;149.138;2023-07-29T00:24:22;1.55;;;0.50;;
41532;SDS011;27262;-35.248;149.138;2023-07-29T00:26:53;0.40;;;0.40;;
41532;SDS011;27262;-35.248;149.138;2023-07-29T00:29:24;0.40;;;0.40;;
41532;SDS011;27262;-35.248;149.138;2023-07-29T00:31:54;0.93;;;0.50;;
41532;SDS011;27262;-35.248;149.138;2023-07-29T00:34:24;0.65;;;0.40;;
41532;SDS011;27262;-35.248;149.138;2023-07-29T00:36:55;0.40;;;0.40;;
41532;SDS011;27262;-35.248;149.138;2023-07-29T00:39:26;1.63;;;0.50;;
41532;SDS011;27262;-35.248;149.138;2023-07-29T00:41:56;3.35;;;0.50;;
41532;SDS011;27262;-35.248;149.138;2023-07-29T00:44:26;0.73;;;0.50;;
41532;SDS011;27262;-35.248;149.138;2023-07-29T00:46:57;3.40;;;0.52;;
41532;SDS011;27262;-35.248;149.138;2023-07-29T00:49:28;1.85;;;0.50;;
41532;SDS011;27262;-35.248;149.138;2023-07-29T00:51:59;2.22;;;0.43;;
41532;SDS011;27262;-35.248;149.138;2023-07-29T00:54:29;0.73;;;0.55;;
41532;SDS011;27262;-35.248;149.138;2023-07-29T00:56:59;2.47;;;0.50;;
41532;SDS011;27262;-35.248;149.138;2023-07-29T00:59:30;2.88;;;0.60;;
41532;SDS011;27262;-35.248;149.138;2023-07-29T01:02:00;1.50;;;0.40;;
41532;SDS011;27262;-35.248;149.138;2023-07-29T01:04:31;1.58;;;0.70;;
41532;SDS011;27262;-35.248;149.138;2023-07-29T01:12:56;1.70;;;0.43;;
41532;SDS011;27262;-35.248;149.138;2023-07-29T01:15:43;1.20;;;0.32;;
41532;SDS011;27262;-35.248;149.138;2023-07-29T01:18:31;1.98;;;0.40;;
41532;SDS011;27262;-35.248;149.138;2023-07-29T01:21:06;1.48;;;0.40;;
41532;SDS011;27262;-35.248;149.138;2023-07-29T01:23:38;1.60;;;0.40;;
41532;SDS011;27262;-35.248;149.138;2023-07-29T01:26:08;1.13;;;0.47;;
41532;SDS011;27262;-35.248;149.138;2023-07-29T01:28:39;1.52;;;0.60;;
41532;SDS011;27262;-35.248;149.138;2023-07-29T01:33:45;1.40;;;0.43;;
41532;SDS011;27262;-35.248;149.138;2023-07-29T01:36:47;1.33;;;0.60;;
41532;SDS011;27262;-35.248;149.138;2023-07-29T01:39:20;2.70;;;0.50;;
41532;SDS011;27262;-35.248;149.138;2023-07-29T01:41:52;1.17;;;0.50;;
41532;SDS011;27262;-35.248;149.138;2023-07-29T01:44:23;0.80;;;0.40;;
41532;SDS011;27262;-35.248;149.138;2023-07-29T01:46:55;0.30;;;0.30;;
41532;SDS011;27262;-35.248;149.138;2023-07-29T01:49:26;1.30;;;0.43;;
41532;SDS011;27262;-35.248;149.138;2023-07-29T01:51:57;0.70;;;0.40;;
41532;SDS011;27262;-35.248;149.138;2023-07-29T01:54:28;1.45;;;0.45;;
41532;SDS011;27262;-35.248;149.138;2023-07-29T01:56:58;1.58;;;0.45;;
41532;SDS011;27262;-35.248;149.138;2023-07-29T01:59:29;3.72;;;0.57;;
41532;SDS011;27262;-35.248;149.138;2023-07-29T02:01:59;2.40;;;0.45;;
41532;SDS011;27262;-35.248;149.138;2023-07-29T02:04:30;2.28;;;0.55;;
41532;SDS011;27262;-35.248;149.138;2023-07-29T02:07:01;1.73;;;0.60;;
41532;SDS011;27262;-35.248;149.138;2023-07-29T02:09:31;2.88;;;0.50;;
41532;SDS011;27262;-35.248;149.138;2023-07-29T02:12:02;0.40;;;0.32;;
41532;SDS011;27262;-35.248;149.138;2023-07-29T02:14:32;2.72;;;0.40;;
41532;SDS011;27262;-35.248;149.138;2023-07-29T02:17:03;1.27;;;0.35;;
41532;SDS011;27262;-35.248;149.138;2023-07-29T02:19:33;0.52;;;0.50;;
41532;SDS011;27262;-35.248;149.138;2023-07-29T02:22:04;3.17;;;0.60;;
41532;SDS011;27262;-35.248;149.138;2023-07-29T02:24:34;0.73;;;0.47;;
41532;SDS011;27262;-35.248;149.138;2023-07-29T02:27:05;0.55;;;0.43;;
41532;SDS011;27262;-35.248;149.138;2023-07-29T02:29:36;1.58;;;0.50;;
41532;SDS011;27262;-35.248;149.138;2023-07-29T02:32:06;3.20;;;0.50;;
41532;SDS011;27262;-35.248;149.138;2023-07-29T02:34:38;0.88;;;0.40;;
41532;SDS011;27262;-35.248;149.138;2023-07-29T02:37:08;1.38;;;0.45;;
41532;SDS011;27262;-35.248;149.138;2023-07-29T02:39:39;2.30;;;0.50;;
41532;SDS011;27262;-35.248;149.138;2023-07-29T02:42:10;1.23;;;0.50;;
41532;SDS011;27262;-35.248;149.138;2023-07-29T02:44:40;0.90;;;0.60;;
41532;SDS011;27262;-35.248;149.138;2023-07-29T02:47:10;0.57;;;0.43;;
41532;SDS011;27262;-35.248;149.138;2023-07-29T02:49:41;0.52;;;0.50;;
41532;SDS011;27262;-35.248;149.138;2023-07-29T02:52:11;1.00;;;0.40;;
41532;SDS011;27262;-35.248;149.138;2023-07-29T02:54:42;2.67;;;0.68;;
41532;SDS011;27262;-35.248;149.138;2023-07-29T02:57:13;1.05;;;0.40;;
41532;SDS011;27262;-35.248;149.138;2023-07-29T02:59:43;2.05;;;0.40;;
41532;SDS011;27262;-35.248;149.138;2023-07-29T03:02:14;0.60;;;0.40;;
41532;SDS011;27262;-35.248;149.138;2023-07-29T03:04:44;0.75;;;0.55;;
41532;SDS011;27262;-35.248;149.138;2023-07-29T03:07:17;1.85;;;0.40;;
41532;SDS011;27262;-35.248;149.138;2023-07-29T03:09:49;2.05;;;0.40;;
41532;SDS011;27262;-35.248;149.138;2023-07-29T03:12:19;1.85;;;0.50;;
41532;SDS011;27262;-35.248;149.138;2023-07-29T03:14:50;0.70;;;0.38;;
41532;SDS011;27262;-35.248;149.138;2023-07-29T03:17:20;1.55;;;0.50;;
41532;SDS011;27262;-35.248;149.138;2023-07-29T03:19:51;0.30;;;0.30;;
41532;SDS011;27262;-35.248;149.138;2023-07-29T03:22:21;0.50;;;0.40;;
41532;SDS011;27262;-35.248;149.138;2023-07-29T03:24:53;2.03;;;0.70;;
41532;SDS011;27262;-35.248;149.138;2023-07-29T03:27:24;1.05;;;0.30;;
41532;SDS011;27262;-35.248;149.138;2023-07-29T03:29:54;0.43;;;0.40;;
41532;SDS011;27262;-35.248;149.138;2023-07-29T03:32:24;2.65;;;0.40;;
41532;SDS011;27262;-35.248;149.138;2023-07-29T03:34:55;0.50;;;0.40;;
41532;SDS011;27262;-35.248;149.138;2023-07-29T03:37:26;2.08;;;0.50;;
41532;SDS011;27262;-35.248;149.138;2023-07-29T03:39:56;1.55;;;0.50;;
41532;SDS011;27262;-35.248;149.138;2023-07-29T03:42:31;0.77;;;0.50;;
41532;SDS011;27262;-35.248;149.138;2023-07-29T03:45:01;2.63;;;0.50;;
41532;SDS011;27262;-35.248;149.138;2023-07-29T03:47:32;1.20;;;0.40;;
41532;SDS011;27262;-35.248;149.138;2023-07-29T03:50:03;1.55;;;0.50;;
41532;SDS011;27262;-35.248;149.138;2023-07-29T03:52:34;1.10;;;0.50;;
41532;SDS011;27262;-35.248;149.138;2023-07-29T03:55:04;1.25;;;0.45;;
41532;SDS011;27262;-35.248;149.138;2023-07-29T03:57:35;1.27;;;0.70;;
41532;SDS011;27262;-35.248;149.138;2023-07-29T04:00:05;1.10;;;0.40;;
41532;SDS011;27262;-35.248;149.138;2023-07-29T04:02:37;1.83;;;0.30;;
41532;SDS011;27262;-35.248;149.138;2023-07-29T04:05:09;2.95;;;0.40;;
41532;SDS011;27262;-35.248;149.138;2023-07-29T04:07:40;0.82;;;0.50;;
41532;SDS011;27262;-35.248;149.138;2023-07-29T04:10:11;0.30;;;0.30;;
41532;SDS011;27262;-35.248;149.138;2023-07-29T04:12:43;0.95;;;0.50;;
41532;SDS011;27262;-35.248;149.138;2023-07-29T04:15:13;2.13;;;0.60;;
41532;SDS011;27262;-35.248;149.138;2023-07-29T04:17:44;0.85;;;0.57;;
41532;SDS011;27262;-35.248;149.138;2023-07-29T04:20:14;2.72;;;0.65;;
41532;SDS011;27262;-35.248;149.138;2023-07-29T04:22:45;0.82;;;0.45;;
41532;SDS011;27262;-35.248;149.138;2023-07-29T04:25:15;2.00;;;0.60;;
41532;SDS011;27262;-35.248;149.138;2023-07-29T04:27:45;0.98;;;0.43;;
41532;SDS011;27262;-35.248;149.138;2023-07-29T04:30:16;1.30;;;0.50;;
41532;SDS011;27262;-35.248;149.138;2023-07-29T04:32:46;3.13;;;0.90;;
41532;SDS011;27262;-35.248;149.138;2023-07-29T04:35:17;4.90;;;0.55;;
41532;SDS011;27262;-35.248;149.138;2023-07-29T04:37:48;3.65;;;0.60;;
41532;SDS011;27262;-35.248;149.138;2023-07-29T04:40:18;2.63;;;0.70;;
41532;SDS011;27262;-35.248;149.138;2023-07-29T04:42:49;1.60;;;0.52;;
41532;SDS011;27262;-35.248;149.138;2023-07-29T04:45:20;3.70;;;0.68;;
41532;SDS011;27262;-35.248;149.138;2023-07-29T04:47:51;1.00;;;0.45;;
41532;SDS011;27262;-35.248;149.138;2023-07-29T04:50:22;3.15;;;0.80;;
41532;SDS011;27262;-35.248;149.138;2023-07-29T04:52:52;1.23;;;0.50;;
41532;SDS011;27262;-35.248;149.138;2023-07-29T04:55:22;2.47;;;0.40;;
41532;SDS011;27262;-35.248;149.138;2023-07-29T04:57:53;1.17;;;0.68;;
41532;SDS011;27262;-35.248;149.138;2023-07-29T05:00:23;1.48;;;0.38;;
41532;SDS011;27262;-35.248;149.138;2023-07-29T05:02:54;0.98;;;0.50;;
41532;SDS011;27262;-35.248;149.138;2023-07-29T05:05:24;3.75;;;0.50;;
41532;SDS011;27262;-35.248;149.138;2023-07-29T05:07:54;1.95;;;0.50;;
41532;SDS011;27262;-35.248;149.138;2023-07-29T05:10:25;0.98;;;0.55;;
41532;SDS011;27262;-35.248;149.138;2023-07-29T05:12:55;2.17;;;0.63;;
41532;SDS011;27262;-35.248;149.138;2023-07-29T05:15:25;1.50;;;0.60;;
41532;SDS011;27262;-35.248;149.138;2023-07-29T05:17:56;2.10;;;0.60;;
41532;SDS011;27262;-35.248;149.138;2023-07-29T05:20:26;2.50;;;0.60;;
41532;SDS011;27262;-35.248;149.138;2023-07-29T05:22:57;0.88;;;0.50;;
41532;SDS011;27262;-35.248;149.138;2023-07-29T05:25:27;2.33;;;0.60;;
41532;SDS011;27262;-35.248;149.138;2023-07-29T05:27:58;2.38;;;0.52;;
41532;SDS011;27262;-35.248;149.138;2023-07-29T05:30:28;1.10;;;0.50;;
41532;SDS011;27262;-35.248;149.138;2023-07-29T05:33:06;0.77;;;0.50;;
41532;SDS011;27262;-35.248;149.138;2023-07-29T05:35:37;0.60;;;0.50;;
41532;SDS011;27262;-35.248;149.138;2023-07-29T05:38:07;1.13;;;0.50;;
41532;SDS011;27262;-35.248;149.138;2023-07-29T05:40:41;0.88;;;0.47;;
41532;SDS011;27262;-35.248;149.138;2023-07-29T05:43:11;1.15;;;0.75;;
41532;SDS011;27262;-35.248;149.138;2023-07-29T05:45:43;0.63;;;0.60;;
41532;SDS011;27262;-35.248;149.138;2023-07-29T05:48:13;0.98;;;0.40;;
41532;SDS011;27262;-35.248;149.138;2023-07-29T05:50:43;0.80;;;0.50;;
41532;SDS011;27262;-35.248;149.138;2023-07-29T05:53:14;1.30;;;0.55;;
41532;SDS011;27262;-35.248;149.138;2023-07-29T05:55:44;1.63;;;0.60;;
41532;SDS011;27262;-35.248;149.138;2023-07-29T05:58:14;1.80;;;0.60;;
41532;SDS011;27262;-35.248;149.138;2023-07-29T06:00:45;2.22;;;0.60;;
41532;SDS011;27262;-35.248;149.138;2023-07-29T06:03:16;2.05;;;0.60;;
41532;SDS011;27262;-35.248;149.138;2023-07-29T06:05:48;2.22;;;0.70;;
41532;SDS011;27262;-35.248;149.138;2023-07-29T06:08:23;0.65;;;0.50;;
41532;SDS011;27262;-35.248;149.138;2023-07-29T06:11:03;3.63;;;0.60;;
41532;SDS011;27262;-35.248;149.138;2023-07-29T06:13:35;1.85;;;0.50;;
41532;SDS011;27262;-35.248;149.138;2023-07-29T06:16:05;2.70;;;0.73;;
41532;SDS011;27262;-35.248;149.138;2023-07-29T06:18:36;0.75;;;0.60;;
41532;SDS011;27262;-35.248;149.138;2023-07-29T06:21:06;1.63;;;0.50;;
41532;SDS011;27262;-35.248;149.138;2023-07-29T06:23:40;3.10;;;0.50;;
41532;SDS011;27262;-35.248;149.138;2023-07-29T06:26:10;1.20;;;0.70;;
41532;SDS011;27262;-35.248;149.138;2023-07-29T06:28:41;3.42;;;0.57;;
41532;SDS011;27262;-35.248;149.138;2023-07-29T06:31:11;1.85;;;0.52;;
41532;SDS011;27262;-35.248;149.138;2023-07-29T06:33:42;1.35;;;0.50;;
41532;SDS011;27262;-35.248;149.138;2023-07-29T06:36:12;0.75;;;0.47;;
41532;SDS011;27262;-35.248;149.138;2023-07-29T06:38:42;2.60;;;0.60;;
41532;SDS011;27262;-35.248;149.138;2023-07-29T06:41:13;0.90;;;0.60;;
41532;SDS011;27262;-35.248;149.138;2023-07-29T06:43:46;1.30;;;0.55;;
41532;SDS011;27262;-35.248;149.138;2023-07-29T06:46:16;2.13;;;0.65;;
41532;SDS011;27262;-35.248;149.138;2023-07-29T06:48:47;0.82;;;0.52;;
41532;SDS011;27262;-35.248;149.138;2023-07-29T06:51:17;1.20;;;0.50;;
41532;SDS011;27262;-35.248;149.138;2023-07-29T06:53:48;1.23;;;0.60;;
41532;SDS011;27262;-35.248;149.138;2023-07-29T06:56:18;1.75;;;0.57;;
41532;SDS011;27262;-35.248;149.138;2023-07-29T06:58:49;0.80;;;0.50;;
41532;SDS011;27262;-35.248;149.138;2023-07-29T07:01:19;0.80;;;0.40;;
41532;SDS011;27262;-35.248;149.138;2023-07-29T07:03:49;0.90;;;0.60;;
41532;SDS011;27262;-35.248;149.138;2023-07-29T07:06:22;0.68;;;0.50;;
41532;SDS011;27262;-35.248;149.138;2023-07-29T07:08:53;0.95;;;0.52;;
41532;SDS011;27262;-35.248;149.138;2023-07-29T07:11:23;0.90;;;0.50;;
41532;SDS011;27262;-35.248;149.138;2023-07-29T07:13:56;2.60;;;0.47;;
41532;SDS011;27262;-35.248;149.138;2023-07-29T07:16:27;0.65;;;0.50;;
41532;SDS011;27262;-35.248;149.138;2023-07-29T07:19:01;1.25;;;0.50;;
41532;SDS011;27262;-35.248;149.138;2023-07-29T07:21:31;0.90;;;0.55;;
41532;SDS011;27262;-35.248;149.138;2023-07-29T07:24:02;0.88;;;0.45;;
41532;SDS011;27262;-35.248;149.138;2023-07-29T07:26:33;1.83;;;0.77;;
41532;SDS011;27262;-35.248;149.138;2023-07-29T07:29:04;1.35;;;0.60;;
41532;SDS011;27262;-35.248;149.138;2023-07-29T07:31:35;0.60;;;0.60;;
41532;SDS011;27262;-35.248;149.138;2023-07-29T07:34:05;0.63;;;0.50;;
41532;SDS011;27262;-35.248;149.138;2023-07-29T07:36:36;4.82;;;0.85;;
41532;SDS011;27262;-35.248;149.138;2023-07-29T07:39:10;0.68;;;0.50;;
41532;SDS011;27262;-35.248;149.138;2023-07-29T07:41:41;1.67;;;0.52;;
41532;SDS011;27262;-35.248;149.138;2023-07-29T07:44:12;0.80;;;0.50;;
41532;SDS011;27262;-35.248;149.138;2023-07-29T07:46:46;3.53;;;0.75;;
41532;SDS011;27262;-35.248;149.138;2023-07-29T07:49:16;0.98;;;0.50;;
41532;SDS011;27262;-35.248;149.138;2023-07-29T07:51:47;1.40;;;0.80;;
41532;SDS011;27262;-35.248;149.138;2023-07-29T07:54:17;1.17;;;0.70;;
41532;SDS011;27262;-35.248;149.138;2023-07-29T07:56:48;1.40;;;0.80;;
41532;SDS011;27262;-35.248;149.138;2023-07-29T07:59:18;2.83;;;0.70;;
41532;SDS011;27262;-35.248;149.138;2023-07-29T08:01:48;2.75;;;0.70;;
41532;SDS011;27262;-35.248;149.138;2023-07-29T08:04:20;1.38;;;0.70;;
41532;SDS011;27262;-35.248;149.138;2023-07-29T08:06:51;1.10;;;0.60;;
41532;SDS011;27262;-35.248;149.138;2023-07-29T08:09:21;0.63;;;0.50;;
41532;SDS011;27262;-35.248;149.138;2023-07-29T08:11:51;0.82;;;0.50;;
41532;SDS011;27262;-35.248;149.138;2023-07-29T08:14:22;1.85;;;0.60;;
41532;SDS011;27262;-35.248;149.138;2023-07-29T08:16:52;1.23;;;0.60;;
41532;SDS011;27262;-35.248;149.138;2023-07-29T08:19:22;0.95;;;0.60;;
41532;SDS011;27262;-35.248;149.138;2023-07-29T08:21:53;0.80;;;0.60;;
41532;SDS011;27262;-35.248;149.138;2023-07-29T08:24:23;1.20;;;0.60;;
41532;SDS011;27262;-35.248;149.138;2023-07-29T08:26:54;1.02;;;0.50;;
41532;SDS011;27262;-35.248;149.138;2023-07-29T08:29:24;2.03;;;0.70;;
41532;SDS011;27262;-35.248;149.138;2023-07-29T08:31:54;0.70;;;0.60;;
41532;SDS011;27262;-35.248;149.138;2023-07-29T08:34:25;1.70;;;0.68;;
41532;SDS011;27262;-35.248;149.138;2023-07-29T08:36:55;1.40;;;0.60;;
41532;SDS011;27262;-35.248;149.138;2023-07-29T08:39:25;1.63;;;0.60;;
41532;SDS011;27262;-35.248;149.138;2023-07-29T08:42:08;0.85;;;0.60;;
41532;SDS011;27262;-35.248;149.138;2023-07-29T08:44:42;1.38;;;0.60;;
41532;SDS011;27262;-35.248;149.138;2023-07-29T08:47:13;1.98;;;0.70;;
41532;SDS011;27262;-35.248;149.138;2023-07-29T08:49:44;0.50;;;0.50;;
41532;SDS011;27262;-35.248;149.138;2023-07-29T08:52:15;1.02;;;0.47;;
41532;SDS011;27262;-35.248;149.138;2023-07-29T08:54:47;1.35;;;0.70;;
41532;SDS011;27262;-35.248;149.138;2023-07-29T08:57:18;0.77;;;0.60;;
41532;SDS011;27262;-35.248;149.138;2023-07-29T08:59:49;0.80;;;0.50;;
41532;SDS011;27262;-35.248;149.138;2023-07-29T09:02:20;2.30;;;0.60;;
41532;SDS011;27262;-35.248;149.138;2023-07-29T09:04:50;1.25;;;0.60;;
41532;SDS011;27262;-35.248;149.138;2023-07-29T09:07:21;1.23;;;0.60;;
41532;SDS011;27262;-35.248;149.138;2023-07-29T09:09:51;1.15;;;0.73;;
41532;SDS011;27262;-35.248;149.138;2023-07-29T09:12:22;1.23;;;0.63;;
41532;SDS011;27262;-35.248;149.138;2023-07-29T09:14:52;0.60;;;0.60;;
41532;SDS011;27262;-35.248;149.138;2023-07-29T09:17:25;1.00;;;0.50;;
41532;SDS011;27262;-35.248;149.138;2023-07-29T09:20:00;1.65;;;0.90;;
41532;SDS011;27262;-35.248;149.138;2023-07-29T09:22:31;1.55;;;0.60;;
41532;SDS011;27262;-35.248;149.138;2023-07-29T09:25:01;0.95;;;0.63;;
41532;SDS011;27262;-35.248;149.138;2023-07-29T09:27:31;0.93;;;0.77;;
41532;SDS011;27262;-35.248;149.138;2023-07-29T09:30:08;0.80;;;0.60;;
41532;SDS011;27262;-35.248;149.138;2023-07-29T09:32:45;0.90;;;0.60;;
41532;SDS011;27262;-35.248;149.138;2023-07-29T09:35:16;2.83;;;0.60;;
41532;SDS011;27262;-35.248;149.138;2023-07-29T09:37:46;1.55;;;0.60;;
41532;SDS011;27262;-35.248;149.138;2023-07-29T09:40:17;1.02;;;0.70;;
41532;SDS011;27262;-35.248;149.138;2023-07-29T09:42:48;1.25;;;0.50;;
41532;SDS011;27262;-35.248;149.138;2023-07-29T09:45:20;1.23;;;0.68;;
41532;SDS011;27262;-35.248;149.138;2023-07-29T09:47:54;1.08;;;0.70;;
41532;SDS011;27262;-35.248;149.138;2023-07-29T09:50:27;1.02;;;0.60;;
41532;SDS011;27262;-35.248;149.138;2023-07-29T09:52:58;0.63;;;0.50;;
41532;SDS011;27262;-35.248;149.138;2023-07-29T09:55:29;2.03;;;0.80;;
41532;SDS011;27262;-35.248;149.138;2023-07-29T09:58:02;0.85;;;0.65;;
41532;SDS011;27262;-35.248;149.138;2023-07-29T10:00:37;1.88;;;0.50;;
41532;SDS011;27262;-35.248;149.138;2023-07-29T10:03:09;5.03;;;0.80;;
41532;SDS011;27262;-35.248;149.138;2023-07-29T10:05:42;1.08;;;0.65;;
41532;SDS011;27262;-35.248;149.138;2023-07-29T10:08:14;0.95;;;0.57;;
41532;SDS011;27262;-35.248;149.138;2023-07-29T10:10:59;0.98;;;0.70;;
41532;SDS011;27262;-35.248;149.138;2023-07-29T10:13:32;0.90;;;0.60;;
41532;SDS011;27262;-35.248;149.138;2023-07-29T10:16:03;0.50;;;0.50;;
41532;SDS011;27262;-35.248;149.138;2023-07-29T10:18:34;0.77;;;0.50;;
41532;SDS011;27262;-35.248;149.138;2023-07-29T10:21:04;1.88;;;0.60;;
41532;SDS011;27262;-35.248;149.138;2023-07-29T10:23:37;1.70;;;0.45;;
41532;SDS011;27262;-35.248;149.138;2023-07-29T10:26:12;2.13;;;0.82;;
41532;SDS011;27262;-35.248;149.138;2023-07-29T10:28:46;2.05;;;0.60;;
41532;SDS011;27262;-35.248;149.138;2023-07-29T10:31:19;3.80;;;0.73;;
41532;SDS011;27262;-35.248;149.138;2023-07-29T10:33:52;1.27;;;0.60;;
41532;SDS011;27262;-35.248;149.138;2023-07-29T10:36:23;0.80;;;0.60;;
41532;SDS011;27262;-35.248;149.138;2023-07-29T10:38:54;1.10;;;0.60;;
41532;SDS011;27262;-35.248;149.138;2023-07-29T10:41:32;1.10;;;0.60;;
41532;SDS011;27262;-35.248;149.138;2023-07-29T10:49:53;0.57;;;0.57;;
41532;SDS011;27262;-35.248;149.138;2023-07-29T10:58:20;3.42;;;0.57;;
41532;SDS011;27262;-35.248;149.138;2023-07-29T11:00:51;1.17;;;0.60;;
41532;SDS011;27262;-35.248;149.138;2023-07-29T11:03:22;1.67;;;0.63;;
41532;SDS011;27262;-35.248;149.138;2023-07-29T11:05:57;0.70;;;0.70;;
41532;SDS011;27262;-35.248;149.138;2023-07-29T11:08:34;1.23;;;0.57;;
41532;SDS011;27262;-35.248;149.138;2023-07-29T11:11:08;0.80;;;0.75;;
41532;SDS011;27262;-35.248;149.138;2023-07-29T11:13:41;0.70;;;0.50;;
41532;SDS011;27262;-35.248;149.138;2023-07-29T11:16:13;0.77;;;0.68;;
41532;SDS011;27262;-35.248;149.138;2023-07-29T11:18:46;1.42;;;0.70;;
41532;SDS011;27262;-35.248;149.138;2023-07-29T11:21:19;0.63;;;0.60;;
41532;SDS011;27262;-35.248;149.138;2023-07-29T11:23:49;0.85;;;0.70;;
41532;SDS011;27262;-35.248;149.138;2023-07-29T11:26:23;1.10;;;0.75;;
41532;SDS011;27262;-35.248;149.138;2023-07-29T11:28:54;1.15;;;0.82;;
41532;SDS011;27262;-35.248;149.138;2023-07-29T11:31:38;1.65;;;0.90;;
41532;SDS011;27262;-35.248;149.138;2023-07-29T11:34:09;5.18;;;0.90;;
41532;SDS011;27262;-35.248;149.138;2023-07-29T11:36:47;1.52;;;0.98;;
41532;SDS011;27262;-35.248;149.138;2023-07-29T11:39:17;1.13;;;0.90;;
41532;SDS011;27262;-35.248;149.138;2023-07-29T11:41:47;2.05;;;0.95;;
41532;SDS011;27262;-35.248;149.138;2023-07-29T11:44:18;1.80;;;0.80;;
41532;SDS011;27262;-35.248;149.138;2023-07-29T11:46:48;1.55;;;1.17;;
41532;SDS011;27262;-35.248;149.138;2023-07-29T11:49:19;2.00;;;1.10;;
41532;SDS011;27262;-35.248;149.138;2023-07-29T11:51:49;1.05;;;0.75;;
41532;SDS011;27262;-35.248;149.138;2023-07-29T11:54:19;1.48;;;1.08;;
41532;SDS011;27262;-35.248;149.138;2023-07-29T11:56:50;1.38;;;1.17;;
41532;SDS011;27262;-35.248;149.138;2023-07-29T11:59:21;1.38;;;0.98;;
41532;SDS011;27262;-35.248;149.138;2023-07-29T12:01:53;1.25;;;0.80;;
41532;SDS011;27262;-35.248;149.138;2023-07-29T12:04:23;1.90;;;0.80;;
41532;SDS011;27262;-35.248;149.138;2023-07-29T12:06:54;1.77;;;0.80;;
41532;SDS011;27262;-35.248;149.138;2023-07-29T12:09:25;1.48;;;1.08;;
41532;SDS011;27262;-35.248;149.138;2023-07-29T12:11:56;0.90;;;0.70;;
41532;SDS011;27262;-35.248;149.138;2023-07-29T12:14:28;2.97;;;1.25;;
41532;SDS011;27262;-35.248;149.138;2023-07-29T12:16:59;1.55;;;0.82;;
41532;SDS011;27262;-35.248;149.138;2023-07-29T12:19:31;0.95;;;0.85;;
41532;SDS011;27262;-35.248;149.138;2023-07-29T12:22:04;1.85;;;1.30;;
41532;SDS011;27262;-35.248;149.138;2023-07-29T12:24:39;1.50;;;1.02;;
41532;SDS011;27262;-35.248;149.138;2023-07-29T12:27:11;1.15;;;1.05;;
41532;SDS011;27262;-35.248;149.138;2023-07-29T12:29:44;1.30;;;0.90;;
41532;SDS011;27262;-35.248;149.138;2023-07-29T12:32:17;3.22;;;1.05;;
41532;SDS011;27262;-35.248;149.138;2023-07-29T12:34:47;1.60;;;1.08;;
41532;SDS011;27262;-35.248;149.138;2023-07-29T12:37:18;1.77;;;1.15;;
41532;SDS011;27262;-35.248;149.138;2023-07-29T12:39:49;1.33;;;0.93;;
41532;SDS011;27262;-35.248;149.138;2023-07-29T12:42:20;1.83;;;1.17;;
41532;SDS011;27262;-35.248;149.138;2023-07-29T12:44:50;1.17;;;1.00;;
41532;SDS011;27262;-35.248;149.138;2023-07-29T12:47:20;1.40;;;1.20;;
41532;SDS011;27262;-35.248;149.138;2023-07-29T12:49:51;1.23;;;0.80;;
41532;SDS011;27262;-35.248;149.138;2023-07-29T12:52:21;1.48;;;1.00;;
41532;SDS011;27262;-35.248;149.138;2023-07-29T12:54:51;1.27;;;1.10;;
41532;SDS011;27262;-35.248;149.138;2023-07-29T12:57:22;1.25;;;0.90;;
41532;SDS011;27262;-35.248;149.138;2023-07-29T12:59:52;1.42;;;0.90;;
41532;SDS011;27262;-35.248;149.138;2023-07-29T13:02:23;1.17;;;0.90;;
41532;SDS011;27262;-35.248;149.138;2023-07-29T13:04:53;0.82;;;0.82;;
41532;SDS011;27262;-35.248;149.138;2023-07-29T13:07:24;1.00;;;0.80;;
41532;SDS011;27262;-35.248;149.138;2023-07-29T13:09:54;2.38;;;1.13;;
41532;SDS011;27262;-35.248;149.138;2023-07-29T13:12:24;0.95;;;0.80;;
41532;SDS011;27262;-35.248;149.138;2023-07-29T13:14:55;1.00;;;0.90;;
41532;SDS011;27262;-35.248;149.138;2023-07-29T13:17:25;1.55;;;0.85;;
41532;SDS011;27262;-35.248;149.138;2023-07-29T13:19:56;1.08;;;0.93;;
41532;SDS011;27262;-35.248;149.138;2023-07-29T13:22:26;1.02;;;0.70;;
41532;SDS011;27262;-35.248;149.138;2023-07-29T13:24:56;2.30;;;0.90;;
41532;SDS011;27262;-35.248;149.138;2023-07-29T13:27:27;0.98;;;0.85;;
41532;SDS011;27262;-35.248;149.138;2023-07-29T13:29:58;0.60;;;0.60;;
41532;SDS011;27262;-35.248;149.138;2023-07-29T13:32:28;0.88;;;0.73;;
41532;SDS011;27262;-35.248;149.138;2023-07-29T13:34:59;1.35;;;0.82;;
41532;SDS011;27262;-35.248;149.138;2023-07-29T13:37:29;1.15;;;0.60;;
41532;SDS011;27262;-35.248;149.138;2023-07-29T13:39:59;1.25;;;0.90;;
41532;SDS011;27262;-35.248;149.138;2023-07-29T13:42:30;0.75;;;0.57;;
41532;SDS011;27262;-35.248;149.138;2023-07-29T13:45:01;0.88;;;0.57;;
41532;SDS011;27262;-35.248;149.138;2023-07-29T13:47:32;1.00;;;0.75;;
41532;SDS011;27262;-35.248;149.138;2023-07-29T13:50:03;1.27;;;0.93;;
41532;SDS011;27262;-35.248;149.138;2023-07-29T13:52:36;0.60;;;0.60;;
41532;SDS011;27262;-35.248;149.138;2023-07-29T13:55:07;0.85;;;0.70;;
41532;SDS011;27262;-35.248;149.138;2023-07-29T13:57:38;0.63;;;0.60;;
41532;SDS011;27262;-35.248;149.138;2023-07-29T14:00:09;0.77;;;0.60;;
41532;SDS011;27262;-35.248;149.138;2023-07-29T14:02:41;1.10;;;0.85;;
41532;SDS011;27262;-35.248;149.138;2023-07-29T14:05:12;0.93;;;0.73;;
41532;SDS011;27262;-35.248;149.138;2023-07-29T14:07:43;1.58;;;0.70;;
41532;SDS011;27262;-35.248;149.138;2023-07-29T14:10:14;0.70;;;0.52;;
41532;SDS011;27262;-35.248;149.138;2023-07-29T14:12:44;1.00;;;0.68;;
41532;SDS011;27262;-35.248;149.138;2023-07-29T14:15:14;1.95;;;0.60;;
41532;SDS011;27262;-35.248;149.138;2023-07-29T14:17:45;0.63;;;0.60;;
41532;SDS011;27262;-35.248;149.138;2023-07-29T14:20:16;0.80;;;0.60;;
41532;SDS011;27262;-35.248;149.138;2023-07-29T14:22:48;0.70;;;0.60;;
41532;SDS011;27262;-35.248;149.138;2023-07-29T14:25:18;0.75;;;0.75;;
41532;SDS011;27262;-35.248;149.138;2023-07-29T14:27:49;1.25;;;0.80;;
41532;SDS011;27262;-35.248;149.138;2023-07-29T14:30:19;1.02;;;0.82;;
41532;SDS011;27262;-35.248;149.138;2023-07-29T14:32:50;0.95;;;0.73;;
41532;SDS011;27262;-35.248;149.138;2023-07-29T14:35:20;0.82;;;0.80;;
41532;SDS011;27262;-35.248;149.138;2023-07-29T14:37:51;1.00;;;0.90;;
41532;SDS011;27262;-35.248;149.138;2023-07-29T14:40:21;1.63;;;1.00;;
41532;SDS011;27262;-35.248;149.138;2023-07-29T14:42:51;0.98;;;0.80;;
41532;SDS011;27262;-35.248;149.138;2023-07-29T14:45:22;0.90;;;0.90;;
41532;SDS011;27262;-35.248;149.138;2023-07-29T14:47:52;1.20;;;0.90;;
41532;SDS011;27262;-35.248;149.138;2023-07-29T14:50:22;1.23;;;0.95;;
41532;SDS011;27262;-35.248;149.138;2023-07-29T14:52:53;0.90;;;0.60;;